Top 10 Insider sales of the month, updated on May 1, 2026.
| Symbol Issuer |
Issuer | Insider Name | Shares Price |
Price | Value($) | Trade Date |
|---|---|---|---|---|---|---|
| CRWV Coreweave, Inc. | Coreweave, Inc. | Venturo Brian M (Chief Strategy Officer) | 65,005 $74.05 | 74.05 | 4,813,620 | 2026-03-31 |
| | Mcveety Kristen J (GC and Secretary) | 11 $74.05 | 74.05 | 814 | 2026-03-31 | |
| | Mcbee Brannin (Chief Development Officer) | 56,031 $74.05 | 74.05 | 4,149,095 | 2026-03-31 | |
| | Intrator Michael N (CEO and President) | 77,939 $74.05 | 74.05 | 5,771,382 | 2026-03-31 | |
| | Goldberg Chen (EVP, Product & Engineering) | 16 $74.05 | 74.05 | 1,184 | 2026-03-31 | |
| | Baker Jeff (Principal Accounting Officer) | 16 $74.05 | 74.05 | 1,184 | 2026-03-31 | |
| | Agrawal Nitin (Chief Financial Officer) | 16 $74.05 | 74.05 | 1,184 | 2026-03-31 | |
| | Intrator Michael N (CEO and President) | 444,017 $78.87 | 78.87 | 35,020,508 | 2026-04-01 | |
| | Venturo Brian M (Chief Strategy Officer) | 489,802 $80.62 | 80.62 | 39,487,837 | 2026-04-02 | |
| | Venturo Brian M (Chief Strategy Officer) | 912,122 $78.84 | 78.84 | 71,908,962 | 2026-04-01 | |
| | Venturo Brian M (Chief Strategy Officer) | 1,125,000 $81.06 | 81.06 | 91,196,999 | 2026-04-06 | |
| | Mcbee Brannin (Chief Development Officer) | 166,665 $81.14 | 81.14 | 13,523,531 | 2026-04-06 | |
| | Intrator Michael N (CEO and President) | 62,399 $90.75 | 90.75 | 5,662,834 | 2026-04-08 | |
| | Goldberg Chen (EVP, Product & Engineering) | 9,757 $92.00 | 92.00 | 897,644 | 2026-04-08 | |
| | Agrawal Nitin (Chief Financial Officer) | 14 $92.00 | 92.00 | 1,288 | 2026-04-08 | |
| | Venturo Brian M (Chief Strategy Officer) | 61,747 $90.72 | 90.72 | 5,601,996 | 2026-04-08 | |
| | Jain Sachin (Chief Operating Officer) | 3,953 $92.00 | 92.00 | 363,676 | 2026-04-08 | |
| | Jain Sachin (Chief Operating Officer) | 7,335 $105.04 | 105.04 | 770,468 | 2026-04-10 | |
| | Venturo Brian M (Chief Strategy Officer) | 1,125,000 $109.54 | 109.54 | 123,232,500 | 2026-04-13 | |
| | Mcbee Brannin (Chief Development Officer) | 22,915 $109.45 | 109.45 | 2,507,955 | 2026-04-13 | |
| | Mcbee Brannin (Chief Development Officer) | 43,750 $109.45 | 109.45 | 4,788,262 | 2026-04-13 | |
| | Mcbee Brannin (Chief Development Officer) | 100,000 $109.55 | 109.55 | 10,955,000 | 2026-04-13 | |
| | Intrator Michael N (CEO and President) | 307,693 $116.39 | 116.39 | 35,813,311 | 2026-04-14 | |
| | Venturo Brian M (Chief Strategy Officer) | 76,924 $117.66 | 117.66 | 9,050,800 | 2026-04-15 | |
| | Jain Sachin (Chief Operating Officer) | 3,953 $120.00 | 120.00 | 474,360 | 2026-04-15 | |
| | Snyderman David J. | 203,356 $119.52 | 119.52 | 24,305,109 | 2026-04-17 | |
| | Snyderman David J. | 228,045 $119.34 | 119.34 | 27,214,890 | 2026-04-16 | |
| | Snyderman David J. | 1,404,667 $119.34 | 119.34 | 167,632,959 | 2026-04-16 | |
| | Snyderman David J. | 422,762 $118.57 | 118.57 | 50,125,622 | 2026-04-15 | |
| | Snyderman David J. | 2,604,094 $118.57 | 118.57 | 308,759,613 | 2026-04-15 | |
| | Snyderman David J. | 323,452 $118.26 | 118.26 | 38,251,433 | 2026-04-21 | |
| | Snyderman David J. | 319,835 $117.33 | 117.33 | 37,526,240 | 2026-04-20 | |
| | Venturo Brian M (Chief Strategy Officer) | 1,125,000 $114.76 | 114.76 | 129,101,625 | 2026-04-20 | |
| | Mcbee Brannin (Chief Development Officer) | 45,830 $114.79 | 114.79 | 5,260,642 | 2026-04-20 | |
| | Mcbee Brannin (Chief Development Officer) | 287,500 $114.81 | 114.81 | 33,006,725 | 2026-04-20 | |
| | Intrator Michael N (CEO and President) | 307,693 $117.47 | 117.47 | 36,145,312 | 2026-04-21 | |
| | Venturo Brian M (Chief Strategy Officer) | 76,924 $121.80 | 121.80 | 9,369,112 | 2026-04-22 | |
| | Snyderman David J. | 620,672 $121.39 | 121.39 | 75,341,512 | 2026-04-22 | |
| | Snyderman David J. | 857,367 $121.39 | 121.39 | 104,073,208 | 2026-04-22 | |
| | Supernova Management Llc | 961,169 $121.39 | 121.39 | 116,673,421 | 2026-04-22 | |
| | Snyderman David J. | 2,770 $119.56 | 119.56 | 331,181 | 2026-04-24 | |
| | Snyderman David J. | 296,160 $122.67 | 122.67 | 36,328,466 | 2026-04-23 | |
| | Venturo Brian M (Chief Strategy Officer) | 375,000 $109.01 | 109.01 | 40,879,500 | 2026-04-27 | |
| | Mcbee Brannin (Chief Development Officer) | 45,850 $109.01 | 109.01 | 4,998,291 | 2026-04-27 | |
| | Mcbee Brannin (Chief Development Officer) | 287,500 $109.03 | 109.03 | 31,345,550 | 2026-04-27 | |
| | Goldberg Chen (EVP, Product & Engineering) | 4,879 $109.09 | 109.09 | 532,240 | 2026-04-27 | |
| | Intrator Michael N (CEO and President) | 307,693 $107.09 | 107.09 | 32,950,843 | 2026-04-28 | |
| | Venturo Brian M (Chief Strategy Officer) | 76,924 $111.60 | 111.60 | 8,585,026 | 2026-04-29 | |
| | Baker Jeff (Principal Accounting Officer) | 6,760 $107.87 | 107.87 | 729,201 | 2026-04-29 | |
| | Snyderman David J. | 6,564 $117.84 | 117.84 | 773,501 | 2026-04-30 | |
| | Snyderman David J. | 209,157 $120.08 | 120.08 | 25,114,945 | 2026-05-01 | |
| | Snyderman David J. | 1,284,876 $120.08 | 120.08 | 154,284,055 | 2026-05-01 | |
| CAR Avis Budget Group, Inc. | Avis Budget Group, Inc. | Halbower Matthew | 843,201 $264.60 | 264.60 | 223,110,984 | 2026-04-23 |
| | Halbower Matthew | 1,848,899 $268.04 | 268.04 | 495,571,492 | 2026-04-23 | |
| | Halbower Matthew | 3,347 $438.74 | 438.74 | 1,468,462 | 2026-04-22 | |
| | Halbower Matthew | 1,643,653 $604.75 | 604.75 | 994,000,795 | 2026-04-22 | |
| | Simhambhatla Ravi (EVP, CDIO - see remarks) | 3,469 $184.09 | 184.09 | 638,608 | 2026-04-30 | |
| | Linnen Edward P (EVP, Chief HR Officer) | 9,483 $182.57 | 182.57 | 1,731,358 | 2026-04-30 | |
| LGN Legence Corp. | Legence Corp. | Blackstone Management Associates Viii L.p. | 15,394,112 $54.00 | 54.00 | 831,282,048 | 2026-04-09 |
| | Schwarzman Stephen A | 15,394,112 $54.00 | 54.00 | 831,282,048 | 2026-04-09 | |
| SMR Nuscale Power Corp | Nuscale Power Corp | Fluor Corp (Director) | 13,500,000 $12.07 | 12.07 | 162,904,500 | 2026-04-09 |
| | Fluor Corp (Director) | 12,936,472 $11.63 | 11.63 | 150,438,232 | 2026-04-15 | |
| | Fluor Corp (Director) | 13,500,000 $11.81 | 11.81 | 159,421,500 | 2026-04-21 | |
| RDW Redwire Corp | Redwire Corp | Edge Autonomy Ultimate Holdings, Lp | 542,368 $9.37 | 9.37 | 5,081,988 | 2026-04-09 |
| | Edge Autonomy Ultimate Holdings, Lp | 407,776 $10.17 | 10.17 | 4,147,081 | 2026-04-08 | |
| | Edge Autonomy Ultimate Holdings, Lp | 581,018 $9.31 | 9.31 | 5,409,277 | 2026-04-10 | |
| | Edge Autonomy Ultimate Holdings, Lp | 790,393 $9.78 | 9.78 | 7,730,043 | 2026-04-13 | |
| | Edge Autonomy Ultimate Holdings, Lp | 692,936 $9.70 | 9.70 | 6,721,479 | 2026-04-15 | |
| | Edge Autonomy Ultimate Holdings, Lp | 1,202,375 $9.92 | 9.92 | 11,927,560 | 2026-04-14 | |
| | Edge Autonomy Ultimate Holdings, Lp | 2,034,536 $10.77 | 10.77 | 21,911,952 | 2026-04-17 | |
| | Edge Autonomy Ultimate Holdings, Lp | 3,145,207 $10.57 | 10.57 | 33,244,837 | 2026-04-16 | |
| | Edge Autonomy Ultimate Holdings, Lp | 977,887 $10.57 | 10.57 | 10,336,265 | 2026-04-21 | |
| | Edge Autonomy Ultimate Holdings, Lp | 1,766,372 $10.23 | 10.23 | 18,069,985 | 2026-04-20 | |
| | Edge Autonomy Ultimate Holdings, Lp | 21,365,909 $10.85 | 10.85 | 231,820,112 | 2026-04-22 | |
| DELL Dell Technologies Inc. | Dell Technologies Inc. | Kennedy David Alan (Chief Financial Officer) | 19,500 $182.53 | 182.53 | 3,559,335 | 2026-04-09 |
| | Clarke Jeffrey W (COO & Vice Chairman) | 116,000 $182.48 | 182.48 | 21,167,680 | 2026-04-15 | |
| | Durban Egon | 458,666 $178.65 | 178.65 | 81,941,598 | 2026-04-15 | |
| | Silver Lake Technology Investors V, L.p. | 382,000 $179.35 | 179.35 | 68,510,554 | 2026-04-16 | |
| | Silver Lake Technology Investors V, L.p. | 458,666 $178.65 | 178.65 | 81,941,598 | 2026-04-15 | |
| | Durban Egon | 382,000 $179.35 | 179.35 | 68,510,554 | 2026-04-16 | |
| ASX Ase Technology Holding Co., Ltd. | Ase Technology Holding Co., Ltd. | Chen Jeffrey | 9,000 $387.00 | 387.00 | 3,483,000 | 2026-04-10 |
| | Chen Jeffrey | 9,000 $388.00 | 388.00 | 3,492,000 | 2026-04-09 | |
| | Chen Jeffrey | 9,000 $380.50 | 380.50 | 3,424,500 | 2026-04-08 | |
| | Chen Jeffrey | 9,000 $432.00 | 432.00 | 3,888,000 | 2026-04-15 | |
| | Chen Jeffrey | 9,000 $427.00 | 427.00 | 3,843,000 | 2026-04-14 | |
| | Chen Jeffrey | 9,000 $408.33 | 408.33 | 3,674,970 | 2026-04-13 | |
| | Chen Jeffrey | 9,000 $461.50 | 461.50 | 4,153,500 | 2026-04-20 | |
| | Chen Jeffrey | 9,000 $454.00 | 454.00 | 4,086,000 | 2026-04-17 | |
| | Chen Jeffrey | 9,000 $446.00 | 446.00 | 4,014,000 | 2026-04-16 | |
| | Chen Tien-szu (GM, ASE Inc. Chung-Li Branch) | 530,000 $467.28 | 467.28 | 247,656,810 | 2026-04-20 | |
| | Chen Jeffrey | 9,000 $487.67 | 487.67 | 4,389,003 | 2026-04-23 | |
| | Chen Jeffrey | 9,000 $466.50 | 466.50 | 4,198,500 | 2026-04-22 | |
| | Chen Jeffrey | 9,000 $463.50 | 463.50 | 4,171,500 | 2026-04-21 | |
| | Chen Jeffrey | 9,000 $473.00 | 473.00 | 4,257,000 | 2026-04-24 | |
| ASTS Ast Spacemobile, Inc. | Ast Spacemobile, Inc. | Rakuten Mobile, Inc. | 1,350,000 $86.22 | 86.22 | 116,397,000 | 2026-04-15 |
| | Rakuten Mobile, Inc. | 1,690,000 $91.42 | 91.42 | 154,499,800 | 2026-04-14 | |
| ANET Arista Networks, Inc. | Arista Networks, Inc. | Giancarlo Charles H (Director) | 8,000 $126.27 | 126.27 | 1,010,168 | 2026-04-01 |
| | Ullal Jayshree (CEO and Chairperson) | 112,812 $150.11 | 150.11 | 16,934,660 | 2026-04-13 | |
| | Breithaupt Chantelle Yvette (Senior Vice President, CFO) | 8,890 $155.02 | 155.02 | 1,378,163 | 2026-04-14 | |
| | Wassenaar Yvonne (Director) | 1,395 $153.10 | 153.10 | 213,580 | 2026-04-15 | |
| | Ullal Jayshree (CEO and Chairperson) | 350,000 $159.88 | 159.88 | 55,957,299 | 2026-04-16 | |
| | Duda Kenneth (President and CTO) | 58,000 $163.09 | 163.09 | 9,459,394 | 2026-04-17 | |
| | Ullal Jayshree (CEO and Chairperson) | 306,139 $167.31 | 167.31 | 51,220,728 | 2026-04-20 | |
| | Ullal Jayshree (CEO and Chairperson) | 93,861 $169.12 | 169.12 | 15,874,241 | 2026-04-21 | |
| | Ullal Jayshree (CEO and Chairperson) | 428,000 $177.75 | 177.75 | 76,075,288 | 2026-04-22 | |
| UTHR United Therapeutics Corp | United Therapeutics Corp | Mahon Paul A (EVP & GENERAL COUNSEL) | 8,300 $565.67 | 565.67 | 4,695,036 | 2026-04-02 |
| | Rothblatt Martine A (Chairperson & CEO) | 9,500 $583.42 | 583.42 | 5,542,509 | 2026-04-01 | |
| | Rothblatt Martine A (Chairperson & CEO) | 9,500 $585.10 | 585.10 | 5,558,431 | 2026-03-31 | |
| | Mahon Paul A (EVP & GENERAL COUNSEL) | 8,300 $565.67 | 565.67 | 4,695,036 | 2026-04-02 | |
| | Rothblatt Martine A (Chairperson & CEO) | 9,500 $583.42 | 583.42 | 5,542,509 | 2026-04-01 | |
| | Rothblatt Martine A (Chairperson & CEO) | 9,500 $585.10 | 585.10 | 5,558,431 | 2026-03-31 | |
| | Rothblatt Martine A (Chairperson & CEO) | 9,500 $561.66 | 561.66 | 5,335,779 | 2026-04-02 | |
| | Edgemond James (CFO AND TREASURER) | 10,000 $561.61 | 561.61 | 5,616,120 | 2026-04-02 | |
| | Edgemond James (CFO AND TREASURER) | 10,000 $559.34 | 559.34 | 5,593,370 | 2026-04-06 | |
| | Rothblatt Martine A (Chairperson & CEO) | 9,500 $559.29 | 559.29 | 5,313,226 | 2026-04-06 | |
| | Rothblatt Martine A (Chairperson & CEO) | 9,500 $563.48 | 563.48 | 5,353,050 | 2026-04-07 | |
| | Rothblatt Martine A (Chairperson & CEO) | 9,500 $577.19 | 577.19 | 5,483,305 | 2026-04-08 | |
| | Edgemond James (CFO AND TREASURER) | 10,000 $578.25 | 578.25 | 5,782,500 | 2026-04-09 | |
| | Rothblatt Martine A (Chairperson & CEO) | 9,500 $578.32 | 578.32 | 5,494,059 | 2026-04-09 | |
| | Rothblatt Martine A (Chairperson & CEO) | 9,500 $569.97 | 569.97 | 5,414,677 | 2026-04-10 |